Time;durP1;ratioP1;P1;durP2;ratioP2;P2;SDS_P1;SDS_P2;PMS_P1;PMS_P2;Temp;Humidity;BMP_temperature;BMP_pressure;BME280_temperature;BME280_humidity;BME280_pressure;Samples;Min_cycle;Max_cycle;Signal;HPM_P1;HPM_P2
2024/02/12 00:02:18;;;;;;;19.47;10.23;;;8.30;99.90;;;;;;5054560;28;20100;-82
2024/02/12 00:04:44;;;;;;;17.87;9.60;;;8.30;99.90;;;;;;5054125;28;20025;-80
2024/02/12 00:07:10;;;;;;;17.77;9.67;;;8.30;99.90;;;;;;5054095;28;20473;-82
2024/02/12 00:09:35;;;;;;;16.67;10.07;;;8.10;99.90;;;;;;5054093;28;20040;-82
2024/02/12 00:12:01;;;;;;;17.03;10.13;;;8.10;99.90;;;;;;5036075;28;20017;-82
2024/02/12 00:14:27;;;;;;;22.00;11.13;;;8.10;99.90;;;;;;5054012;28;20029;-83
2024/02/12 00:16:54;;;;;;;21.67;11.07;;;8.00;99.90;;;;;;5052472;28;20064;-82
2024/02/12 00:19:22;;;;;;;19.17;11.10;;;8.00;99.90;;;;;;5053980;28;20029;-83
2024/02/12 00:21:48;;;;;;;19.10;10.87;;;7.90;99.90;;;;;;5053621;28;20075;-82
2024/02/12 00:24:17;;;;;;;19.63;10.47;;;7.90;99.90;;;;;;5054045;28;20033;-82
2024/02/12 00:26:43;;;;;;;22.33;11.37;;;7.90;99.90;;;;;;5035815;28;20024;-82
2024/02/12 00:29:09;;;;;;;21.97;12.17;;;7.90;99.90;;;;;;5035621;28;20068;-82
2024/02/12 00:31:35;;;;;;;23.70;12.70;;;7.90;99.90;;;;;;5035758;28;20377;-82
2024/02/12 00:34:01;;;;;;;21.47;12.00;;;7.90;99.90;;;;;;5053232;28;20477;-83
2024/02/12 00:36:28;;;;;;;23.07;12.47;;;8.00;99.90;;;;;;5035621;28;20021;-81
2024/02/12 00:38:54;;;;;;;21.30;11.97;;;8.00;99.90;;;;;;5035526;28;20033;-81
2024/02/12 00:41:20;;;;;;;26.90;14.57;;;8.00;99.90;;;;;;5052484;28;20075;-81
2024/02/12 00:43:47;;;;;;;24.53;13.00;;;8.00;99.90;;;;;;5035563;28;20025;-80
2024/02/12 00:46:15;;;;;;;27.03;13.87;;;8.00;99.90;;;;;;5053432;28;20044;-81
2024/02/12 00:48:42;;;;;;;28.50;13.43;;;8.10;99.90;;;;;;5035054;28;20112;-80
2024/02/12 00:51:10;;;;;;;29.77;13.47;;;8.00;99.90;;;;;;5035137;28;20033;-80
2024/02/12 00:53:38;;;;;;;20.70;12.80;;;8.00;99.90;;;;;;5053607;28;20032;-81
2024/02/12 00:56:06;;;;;;;29.67;15.13;;;8.10;99.90;;;;;;5035766;28;20104;-81
2024/02/12 00:58:34;;;;;;;25.30;14.30;;;8.10;99.90;;;;;;5035207;28;20025;-81
2024/02/12 01:00:59;;;;;;;24.33;13.77;;;8.10;99.90;;;;;;5035377;28;20029;-81
2024/02/12 01:03:26;;;;;;;24.90;14.33;;;8.10;99.90;;;;;;5051598;28;20577;-81
2024/02/12 01:05:53;;;;;;;32.47;14.53;;;8.20;99.90;;;;;;5053402;28;20060;-81
2024/02/12 01:08:21;;;;;;;24.63;15.40;;;8.20;99.90;;;;;;5052724;28;20534;-81
2024/02/12 01:10:47;;;;;;;25.83;15.13;;;8.20;99.90;;;;;;5035264;28;20517;-82
2024/02/12 01:13:13;;;;;;;27.27;15.83;;;8.20;99.90;;;;;;5035142;28;20029;-82
2024/02/12 01:15:40;;;;;;;33.60;17.07;;;8.20;99.90;;;;;;5053256;28;20060;-82
2024/02/12 01:18:07;;;;;;;30.70;17.47;;;8.20;99.90;;;;;;5034799;28;20104;-81
2024/02/12 01:20:34;;;;;;;30.87;15.90;;;8.20;99.90;;;;;;5034799;28;20043;-81
2024/02/12 01:22:59;;;;;;;29.03;15.93;;;8.20;99.90;;;;;;5034937;28;20079;-81
2024/02/12 01:25:25;;;;;;;27.70;15.67;;;8.20;99.90;;;;;;5052823;28;20029;-81
2024/02/12 01:27:51;;;;;;;31.70;17.57;;;8.20;99.90;;;;;;5052450;28;20443;-81
2024/02/12 01:30:16;;;;;;;31.90;16.70;;;8.20;99.90;;;;;;5031235;28;20095;-82
2024/02/12 01:32:43;;;;;;;34.67;17.23;;;8.20;99.90;;;;;;5032427;28;20029;-81
2024/02/12 01:35:11;;;;;;;29.10;16.33;;;8.20;99.90;;;;;;5033009;28;20108;-82
2024/02/12 01:37:36;;;;;;;30.60;16.40;;;8.20;99.90;;;;;;5031573;28;20045;-81
2024/02/12 01:40:02;;;;;;;27.30;16.40;;;8.20;99.90;;;;;;5031165;28;20187;-81
2024/02/12 01:42:28;;;;;;;28.47;16.47;;;8.20;99.90;;;;;;5031423;28;20040;-81
2024/02/12 01:45:12;;;;;;;33.67;17.37;;;8.20;99.90;;;;;;5031213;28;20030;-81
2024/02/12 01:47:41;;;;;;;28.23;15.60;;;8.20;99.90;;;;;;5030933;28;20157;-81
2024/02/12 01:50:12;;;;;;;27.80;16.03;;;8.30;99.90;;;;;;5032890;28;20462;-82
2024/02/12 01:52:39;;;;;;;30.73;16.10;;;8.30;99.90;;;;;;5034019;28;20029;-82
2024/02/12 01:55:07;;;;;;;32.93;16.67;;;8.30;99.90;;;;;;5036875;28;20100;-82
2024/02/12 01:57:36;;;;;;;31.03;17.60;;;8.30;99.90;;;;;;5035475;28;20397;-81
2024/02/12 02:00:05;;;;;;;35.10;18.77;;;8.30;99.90;;;;;;5036516;28;20072;-82
2024/02/12 02:02:30;;;;;;;29.70;15.63;;;8.30;99.90;;;;;;5036578;28;20104;-81
2024/02/12 02:04:58;;;;;;;29.23;16.73;;;8.30;99.90;;;;;;5035126;28;20481;-81
2024/02/12 02:07:24;;;;;;;34.00;17.07;;;8.30;99.90;;;;;;5035288;28;20021;-81
2024/02/12 02:09:52;;;;;;;30.23;15.80;;;8.30;99.90;;;;;;5036476;28;20029;-81
2024/02/12 02:12:19;;;;;;;35.60;17.90;;;8.30;99.90;;;;;;5036418;28;20473;-82
2024/02/12 02:14:45;;;;;;;31.90;17.27;;;8.40;99.90;;;;;;5035236;28;20110;-81
2024/02/12 02:17:13;;;;;;;28.60;16.23;;;8.30;99.90;;;;;;5036039;28;20040;-81
2024/02/12 02:19:39;;;;;;;28.67;16.23;;;8.30;99.90;;;;;;5036124;28;20040;-82
2024/02/12 02:22:06;;;;;;;26.40;15.47;;;8.40;99.90;;;;;;5036122;28;20026;-81
2024/02/12 02:24:32;;;;;;;32.53;16.83;;;8.30;99.90;;;;;;5036091;28;20022;-81
2024/02/12 02:26:58;;;;;;;29.57;16.40;;;8.40;99.90;;;;;;5034421;28;20052;-81
2024/02/12 02:29:23;;;;;;;24.13;14.67;;;8.40;99.90;;;;;;5036229;28;20097;-82
2024/02/12 02:31:49;;;;;;;32.97;15.83;;;8.40;99.90;;;;;;5038232;28;20025;-82
2024/02/12 02:34:14;;;;;;;28.83;16.07;;;8.40;99.90;;;;;;5055848;28;20017;-81
2024/02/12 02:36:46;;;;;;;29.37;15.03;;;8.40;99.90;;;;;;5037923;28;20545;-82
2024/02/12 02:39:13;;;;;;;31.93;17.07;;;8.40;99.90;;;;;;5038036;28;20083;-82
2024/02/12 02:41:45;;;;;;;29.33;16.03;;;8.50;99.90;;;;;;5037969;28;20032;-81
2024/02/12 02:44:12;;;;;;;33.23;17.67;;;8.50;99.90;;;;;;5037855;28;20033;-82
2024/02/12 02:46:38;;;;;;;31.43;16.50;;;8.50;99.90;;;;;;5055351;28;20025;-81
2024/02/12 02:49:04;;;;;;;31.93;18.13;;;8.50;99.90;;;;;;5042944;28;20025;-82
2024/02/12 02:51:30;;;;;;;29.97;17.10;;;8.50;99.90;;;;;;5035736;28;20172;-81
2024/02/12 02:53:56;;;;;;;31.70;16.90;;;8.50;99.90;;;;;;5035491;28;20025;-81
2024/02/12 02:56:23;;;;;;;32.10;18.47;;;8.50;99.90;;;;;;5035496;28;20018;-81
2024/02/12 02:58:52;;;;;;;44.10;19.50;;;8.50;99.90;;;;;;5035581;28;20029;-81
2024/02/12 03:01:22;;;;;;;32.33;18.10;;;8.50;99.90;;;;;;5035427;28;20481;-81
2024/02/12 03:03:51;;;;;;;36.57;19.10;;;8.50;99.90;;;;;;5017242;28;20115;-82
2024/02/12 03:06:18;;;;;;;36.93;19.33;;;8.50;99.90;;;;;;5035528;28;20021;-81
2024/02/12 03:08:45;;;;;;;31.13;19.00;;;8.40;99.90;;;;;;5035421;28;20113;-81
2024/02/12 03:11:22;;;;;;;33.40;18.20;;;8.40;99.90;;;;;;5035216;28;20072;-81
2024/02/12 03:13:50;;;;;;;33.33;17.10;;;8.50;99.90;;;;;;5017354;28;20029;-81
2024/02/12 03:16:16;;;;;;;31.47;18.40;;;8.40;99.90;;;;;;5034983;28;20481;-82
2024/02/12 03:18:45;;;;;;;34.47;20.00;;;8.50;99.90;;;;;;5017450;28;20032;-81
2024/02/12 03:21:18;;;;;;;37.27;18.97;;;8.40;99.90;;;;;;5017331;28;20481;-82
2024/02/12 03:23:44;;;;;;;36.03;19.73;;;8.50;99.90;;;;;;5034941;28;20026;-81
2024/02/12 03:26:10;;;;;;;34.77;19.37;;;8.50;99.90;;;;;;5035105;28;20072;-82
2024/02/12 03:28:37;;;;;;;32.57;18.37;;;8.40;99.90;;;;;;5033668;28;20022;-82
2024/02/12 03:31:04;;;;;;;33.87;17.87;;;8.40;99.90;;;;;;5013557;28;20504;-82
2024/02/12 03:33:30;;;;;;;32.90;17.47;;;8.40;99.90;;;;;;5014895;28;20105;-81
2024/02/12 03:35:56;;;;;;;33.67;19.20;;;8.40;99.90;;;;;;5014893;28;20026;-81
2024/02/12 03:38:24;;;;;;;35.97;18.80;;;8.40;99.90;;;;;;5015155;28;20022;-82
2024/02/12 03:40:51;;;;;;;33.93;18.80;;;8.40;99.90;;;;;;5013598;28;20026;-82
2024/02/12 03:43:17;;;;;;;33.57;18.60;;;8.30;99.90;;;;;;5013194;28;20014;-82
2024/02/12 03:45:45;;;;;;;33.33;18.70;;;8.20;99.90;;;;;;5014765;28;20140;-81
2024/02/12 04:01:52;;;;;;;33.42;16.52;;;7.90;99.90;;;;;;5014954;28;20067;-81
2024/02/12 04:04:19;;;;;;;31.50;16.30;;;7.90;99.90;;;;;;5014681;28;20097;-81
2024/02/12 04:06:45;;;;;;;32.27;17.73;;;7.90;99.90;;;;;;5013000;28;20036;-81
2024/02/12 04:09:11;;;;;;;39.73;19.17;;;7.90;99.90;;;;;;5012907;28;20470;-82
2024/02/12 04:11:41;;;;;;;33.57;18.33;;;7.80;99.90;;;;;;5014589;28;20474;-81
2024/02/12 04:14:09;;;;;;;35.83;18.77;;;7.80;99.90;;;;;;5014677;28;20013;-81
2024/02/12 04:16:36;;;;;;;31.73;17.23;;;7.80;99.90;;;;;;5014266;28;20094;-81
2024/02/12 04:19:03;;;;;;;36.67;18.97;;;7.80;99.90;;;;;;5012904;28;20033;-81
2024/02/12 04:21:32;;;;;;;35.73;19.10;;;7.80;99.90;;;;;;5013809;28;20490;-81
2024/02/12 04:24:03;;;;;;;37.20;20.23;;;7.80;99.90;;;;;;5014110;28;20467;-81
2024/02/12 04:26:32;;;;;;;39.27;19.90;;;7.80;99.90;;;;;;5012858;28;20022;-82
2024/02/12 04:28:58;;;;;;;39.90;20.93;;;7.80;99.90;;;;;;5012884;28;20022;-81
2024/02/12 04:31:26;;;;;;;39.70;21.93;;;7.70;99.90;;;;;;5012533;28;20235;-81
2024/02/12 04:33:53;;;;;;;41.73;19.43;;;7.70;99.90;;;;;;5013822;28;20064;-81
2024/02/12 04:36:19;;;;;;;34.43;18.90;;;7.60;99.90;;;;;;5012596;28;20026;-81
2024/02/12 04:38:45;;;;;;;38.93;19.47;;;7.60;99.90;;;;;;5012497;28;20030;-81
2024/02/12 04:41:13;;;;;;;34.20;18.70;;;7.50;99.90;;;;;;5015279;28;20414;-81
2024/02/12 04:43:40;;;;;;;37.10;20.63;;;7.50;99.90;;;;;;5033061;28;20022;-81
2024/02/12 04:46:05;;;;;;;37.97;20.43;;;7.40;99.90;;;;;;5033122;28;20029;-81
2024/02/12 04:48:31;;;;;;;32.90;19.07;;;7.30;99.90;;;;;;5032538;28;20097;-81
2024/02/12 04:50:57;;;;;;;40.93;17.93;;;7.30;99.90;;;;;;5031938;28;20025;-81
2024/02/12 04:53:23;;;;;;;41.20;20.13;;;7.20;99.90;;;;;;5032257;28;20078;-81
2024/02/12 04:55:49;;;;;;;41.73;18.40;;;7.20;99.90;;;;;;5032569;28;20032;-81
2024/02/12 04:58:14;;;;;;;40.53;19.57;;;7.10;99.90;;;;;;5033027;28;20029;-81
2024/02/12 05:00:40;;;;;;;37.53;18.93;;;7.10;99.90;;;;;;5033113;28;20543;-81
2024/02/12 05:03:07;;;;;;;41.90;18.97;;;7.00;99.90;;;;;;5033162;28;20029;-81
2024/02/12 05:05:33;;;;;;;36.53;19.17;;;7.00;99.90;;;;;;5032096;28;20053;-81
2024/02/12 05:08:03;;;;;;;38.13;19.43;;;6.90;99.90;;;;;;5032040;28;20499;-81
2024/02/12 05:10:29;;;;;;;43.83;20.10;;;6.90;99.90;;;;;;5031790;28;20028;-81
2024/02/12 05:12:56;;;;;;;39.47;19.77;;;6.90;99.90;;;;;;5033269;28;20461;-82
2024/02/12 05:15:23;;;;;;;41.80;19.43;;;6.80;99.90;;;;;;5031886;28;20556;-81
2024/02/12 05:17:54;;;;;;;43.97;19.63;;;6.80;99.90;;;;;;5033141;28;20358;-81
2024/02/12 05:23:09;;;;;;;52.13;23.47;;;6.80;99.90;;;;;;5033198;28;20101;-81
2024/02/12 05:25:36;;;;;;;53.50;25.27;;;6.80;99.90;;;;;;5032570;28;20469;-82
2024/02/12 05:28:03;;;;;;;42.17;21.67;;;6.80;99.90;;;;;;5026667;28;20029;-82
2024/02/12 05:30:32;;;;;;;51.63;24.60;;;6.80;99.90;;;;;;5032956;28;20080;-82
2024/02/12 05:32:58;;;;;;;46.57;23.73;;;6.80;99.90;;;;;;5052606;28;20029;-82
2024/02/12 05:35:24;;;;;;;47.67;22.10;;;6.80;99.90;;;;;;5034427;28;20396;-81
2024/02/12 05:37:50;;;;;;;45.23;22.87;;;6.80;99.90;;;;;;5052521;28;20029;-82
2024/02/12 05:40:18;;;;;;;51.73;24.40;;;6.80;99.90;;;;;;5052469;28;20033;-81
2024/02/12 05:42:43;;;;;;;45.50;22.43;;;6.80;99.90;;;;;;5034706;28;20021;-81
2024/02/12 05:45:09;;;;;;;55.03;24.63;;;6.70;99.90;;;;;;5052999;28;20448;-82
2024/02/12 05:47:35;;;;;;;50.93;23.90;;;6.60;99.90;;;;;;5052331;28;20481;-81
2024/02/12 05:50:00;;;;;;;55.83;23.43;;;6.60;99.90;;;;;;5034413;28;20025;-82
2024/02/12 05:52:26;;;;;;;56.20;23.57;;;6.60;99.90;;;;;;5052465;28;20033;-82
2024/02/12 05:54:51;;;;;;;53.57;24.37;;;6.60;99.90;;;;;;5034317;28;20028;-81
2024/02/12 05:57:17;;;;;;;42.63;21.47;;;6.60;99.90;;;;;;5052309;28;20016;-81
2024/02/12 05:59:43;;;;;;;49.73;23.13;;;6.60;99.90;;;;;;5052557;28;20082;-81
2024/02/12 06:02:11;;;;;;;51.60;21.67;;;6.60;99.90;;;;;;5052366;28;20469;-81
2024/02/12 06:04:38;;;;;;;46.93;21.97;;;6.60;99.90;;;;;;5052524;28;20022;-81
2024/02/12 06:07:04;;;;;;;48.90;23.93;;;6.60;99.90;;;;;;5052368;28;20013;-83
2024/02/12 06:09:30;;;;;;;51.53;23.10;;;6.60;99.90;;;;;;5034366;28;20111;-83
2024/02/12 06:11:55;;;;;;;47.63;22.93;;;6.70;99.90;;;;;;5052163;28;20392;-83
2024/02/12 06:14:21;;;;;;;53.23;23.77;;;6.70;99.90;;;;;;5034511;28;20100;-83
2024/02/12 06:16:47;;;;;;;50.87;23.23;;;6.80;99.90;;;;;;5034261;28;20028;-83
2024/02/12 06:19:13;;;;;;;49.93;23.93;;;6.80;99.90;;;;;;5034295;28;20067;-83
2024/02/12 06:21:43;;;;;;;47.70;23.57;;;6.90;99.90;;;;;;5051802;28;20021;-83
2024/02/12 06:24:09;;;;;;;52.03;23.70;;;6.90;99.90;;;;;;5052004;28;20020;-83
2024/02/12 06:26:34;;;;;;;47.03;22.77;;;6.90;99.90;;;;;;5034207;28;20025;-83
2024/02/12 06:29:03;;;;;;;50.10;24.40;;;6.90;99.90;;;;;;5034411;28;20033;-82
2024/02/12 06:31:29;;;;;;;45.83;23.50;;;7.00;99.90;;;;;;5051781;28;20040;-83
2024/02/12 06:33:55;;;;;;;50.30;25.23;;;7.00;99.90;;;;;;5051819;28;20090;-84
2024/02/12 06:36:21;;;;;;;43.50;21.83;;;7.00;99.90;;;;;;5034148;28;20025;-84
2024/02/12 06:38:48;;;;;;;51.17;24.20;;;7.00;99.90;;;;;;5052969;28;20110;-83
2024/02/12 06:41:14;;;;;;;48.33;23.97;;;7.00;99.90;;;;;;5055669;28;20076;-83
2024/02/12 06:43:41;;;;;;;47.07;22.23;;;7.10;99.90;;;;;;5055298;28;20059;-83
2024/02/12 06:46:06;;;;;;;45.83;23.83;;;7.10;99.90;;;;;;5037514;28;20393;-84
2024/02/12 06:48:32;;;;;;;46.50;22.50;;;7.20;99.90;;;;;;5055043;28;20036;-83
2024/02/12 06:51:08;;;;;;;49.90;24.30;;;7.20;99.90;;;;;;5037568;28;20017;-84
2024/02/12 06:53:35;;;;;;;44.10;21.63;;;7.20;99.90;;;;;;5055535;28;20016;-83
2024/02/12 06:56:03;;;;;;;45.20;23.40;;;7.20;99.90;;;;;;5054463;28;20499;-84
2024/02/12 06:58:29;;;;;;;45.80;23.33;;;7.30;99.90;;;;;;5037899;28;20029;-84
2024/02/12 07:00:57;;;;;;;45.20;21.83;;;7.20;99.90;;;;;;5055593;28;20051;-84
2024/02/12 07:03:23;;;;;;;39.10;20.07;;;7.30;99.90;;;;;;5055886;28;20017;-84
2024/02/12 07:05:51;;;;;;;45.87;23.47;;;7.30;99.90;;;;;;5035285;28;20020;-84
2024/02/12 07:08:18;;;;;;;43.00;20.77;;;7.30;99.90;;;;;;5029706;28;20045;-84
2024/02/12 07:10:44;;;;;;;46.67;21.67;;;7.40;99.90;;;;;;5025934;28;20131;-85
2024/02/12 07:13:10;;;;;;;44.43;20.80;;;7.40;99.90;;;;;;5055142;28;20384;-85
2024/02/12 07:15:36;;;;;;;41.90;21.70;;;7.40;99.90;;;;;;5040367;28;20524;-85
2024/02/12 07:18:02;;;;;;;42.53;22.03;;;7.40;99.90;;;;;;5037102;28;20021;-85
2024/02/12 07:20:28;;;;;;;41.27;21.13;;;7.50;99.90;;;;;;5030486;28;20013;-84
2024/02/12 07:22:54;;;;;;;42.10;20.33;;;7.50;99.90;;;;;;5048915;28;20028;-84
2024/02/12 07:25:20;;;;;;;38.03;20.23;;;7.60;99.90;;;;;;5035823;28;20055;-84
2024/02/12 07:27:46;;;;;;;37.67;19.57;;;7.60;99.90;;;;;;5035481;28;20071;-85
2024/02/12 07:30:12;;;;;;;42.47;21.20;;;7.60;99.90;;;;;;5052574;28;20062;-84
2024/02/12 07:32:37;;;;;;;37.70;19.00;;;7.70;99.90;;;;;;5035555;28;20171;-84
2024/02/12 07:35:08;;;;;;;44.03;22.37;;;7.70;99.90;;;;;;5035779;28;20036;-85
2024/02/12 07:37:41;;;;;;;38.47;20.50;;;7.70;99.90;;;;;;5019612;28;20112;-85
2024/02/12 07:40:10;;;;;;;38.17;20.23;;;7.70;99.90;;;;;;5050869;28;20148;-84
2024/02/12 07:42:41;;;;;;;36.23;20.03;;;7.70;99.90;;;;;;5036760;28;20021;-84
2024/02/12 07:45:07;;;;;;;34.87;19.37;;;7.80;99.90;;;;;;5054276;28;20096;-84
2024/02/12 07:47:37;;;;;;;34.07;19.60;;;7.80;99.90;;;;;;5053978;28;20041;-84
2024/02/12 07:50:07;;;;;;;33.37;18.03;;;7.70;99.90;;;;;;5036141;28;20032;-84
2024/02/12 07:52:32;;;;;;;35.67;19.13;;;7.80;99.90;;;;;;5055157;28;20104;-84
2024/02/12 07:55:00;;;;;;;38.03;19.50;;;7.80;99.90;;;;;;5035584;28;20115;-85
2024/02/12 07:57:27;;;;;;;34.47;17.83;;;7.80;99.90;;;;;;5054545;28;20013;-85
2024/02/12 07:59:54;;;;;;;35.57;18.57;;;7.90;99.90;;;;;;5036623;28;20119;-86
2024/02/12 08:02:21;;;;;;;34.23;18.23;;;7.80;99.90;;;;;;5054327;28;20021;-86
2024/02/12 08:04:47;;;;;;;35.40;17.20;;;7.90;99.90;;;;;;5054418;28;20040;-85
2024/02/12 08:07:13;;;;;;;34.57;18.70;;;7.90;99.90;;;;;;5036516;28;20021;-85
2024/02/12 08:09:38;;;;;;;34.97;18.20;;;7.90;99.90;;;;;;5036170;28;20024;-86
2024/02/12 08:12:07;;;;;;;29.37;17.20;;;7.90;99.90;;;;;;5036782;28;20021;-85
2024/02/12 08:14:33;;;;;;;33.43;17.60;;;8.00;99.90;;;;;;5036563;28;20017;-85
2024/02/12 08:16:59;;;;;;;35.43;18.83;;;8.00;99.90;;;;;;5036688;28;20029;-85
2024/02/12 08:19:26;;;;;;;34.20;19.63;;;8.00;99.90;;;;;;5053835;28;20025;-85
2024/02/12 08:21:52;;;;;;;33.50;18.63;;;8.00;99.90;;;;;;5053805;28;20028;-86
2024/02/12 08:24:18;;;;;;;34.37;18.37;;;8.00;99.90;;;;;;5054411;28;20373;-85
2024/02/12 08:26:44;;;;;;;37.00;19.33;;;8.00;99.90;;;;;;5035652;28;20028;-85
2024/02/12 08:29:10;;;;;;;41.37;20.77;;;8.00;99.90;;;;;;5054106;28;20025;-85
2024/02/12 08:31:36;;;;;;;41.57;20.53;;;8.00;99.90;;;;;;5053810;28;20045;-85
2024/02/12 08:34:03;;;;;;;37.97;20.67;;;8.00;99.90;;;;;;5053151;28;20036;-86
2024/02/12 08:36:28;;;;;;;37.53;19.43;;;8.10;99.90;;;;;;5053880;28;20013;-85
2024/02/12 08:38:54;;;;;;;30.60;17.87;;;8.10;99.90;;;;;;5053807;28;20515;-86
2024/02/12 08:41:25;;;;;;;36.43;20.13;;;8.20;99.90;;;;;;5054205;28;20060;-86
2024/02/12 08:43:53;;;;;;;34.50;18.70;;;8.20;99.90;;;;;;5053559;28;20025;-85
2024/02/12 08:46:19;;;;;;;37.03;19.97;;;8.40;99.90;;;;;;5035753;28;20052;-85
2024/02/12 08:48:45;;;;;;;30.90;18.60;;;8.40;99.90;;;;;;5053106;28;20435;-85
2024/02/12 08:51:11;;;;;;;32.27;18.47;;;8.50;99.90;;;;;;5035693;28;20017;-85
2024/02/12 08:53:46;;;;;;;39.63;20.03;;;8.50;99.90;;;;;;5035869;28;20028;-85
2024/02/12 08:56:17;;;;;;;38.77;20.40;;;8.60;99.90;;;;;;5053566;28;20025;-85
2024/02/12 08:58:43;;;;;;;35.90;21.63;;;8.70;99.90;;;;;;5053393;28;20025;-85
2024/02/12 09:01:10;;;;;;;36.77;20.73;;;8.80;99.90;;;;;;5034828;28;20021;-85
2024/02/12 09:03:43;;;;;;;43.30;23.33;;;8.80;99.90;;;;;;5053059;28;20075;-85
2024/02/12 09:06:12;;;;;;;40.33;23.60;;;8.70;99.90;;;;;;5035538;28;20027;-86
2024/02/12 09:08:45;;;;;;;41.53;23.47;;;8.70;99.90;;;;;;5035277;28;20127;-85
2024/02/12 09:11:12;;;;;;;40.90;23.63;;;8.80;99.90;;;;;;5035717;28;20530;-85
2024/02/12 09:13:40;;;;;;;44.50;24.20;;;8.80;99.90;;;;;;5035235;28;20028;-85
2024/02/12 09:16:08;;;;;;;52.00;27.77;;;8.90;99.90;;;;;;5052983;28;20027;-85
2024/02/12 09:18:37;;;;;;;53.30;28.50;;;8.80;99.90;;;;;;5035287;28;20078;-85
2024/02/12 09:21:04;;;;;;;47.67;26.70;;;8.80;99.90;;;;;;5053263;28;20400;-84
2024/02/12 09:23:30;;;;;;;46.23;26.07;;;8.70;99.90;;;;;;5035189;28;20048;-85
2024/02/12 09:25:56;;;;;;;52.90;29.67;;;8.70;99.90;;;;;;5035878;28;20078;-84
2024/02/12 09:28:26;;;;;;;49.53;27.43;;;8.70;99.90;;;;;;5035942;28;20083;-85
2024/02/12 09:30:58;;;;;;;47.13;27.03;;;8.60;99.90;;;;;;5035004;28;20443;-84
2024/02/12 09:33:24;;;;;;;45.30;24.87;;;8.60;99.90;;;;;;5053256;28;20032;-84
2024/02/12 09:35:49;;;;;;;48.10;27.23;;;8.70;99.90;;;;;;5053038;28;20052;-86
2024/02/12 09:38:15;;;;;;;44.53;24.90;;;8.60;99.90;;;;;;5035170;28;20146;-85
2024/02/12 09:40:42;;;;;;;46.37;26.30;;;8.70;99.90;;;;;;5034736;28;20481;-85
2024/02/12 09:43:09;;;;;;;44.57;24.87;;;8.60;99.90;;;;;;5034888;28;20515;-84
2024/02/12 09:45:46;;;;;;;42.77;25.10;;;8.60;99.90;;;;;;5035110;28;20116;-85
2024/02/12 09:48:13;;;;;;;42.73;25.83;;;8.70;99.90;;;;;;5052639;28;20115;-85
2024/02/12 09:50:48;;;;;;;51.37;27.40;;;8.70;99.90;;;;;;5034872;28;20082;-85
2024/02/12 09:53:23;;;;;;;45.67;25.77;;;8.70;99.90;;;;;;5034773;28;20056;-85
2024/02/12 09:55:48;;;;;;;42.90;26.27;;;8.60;99.90;;;;;;5035252;28;20025;-86
2024/02/12 09:58:20;;;;;;;46.03;25.33;;;8.70;99.90;;;;;;5034691;28;20393;-86
2024/02/12 10:00:46;;;;;;;42.40;24.70;;;8.70;99.90;;;;;;5034599;28;20029;-86
2024/02/12 10:03:13;;;;;;;44.57;26.10;;;8.70;99.90;;;;;;5034676;28;20021;-86
2024/02/12 10:05:43;;;;;;;45.90;24.87;;;8.80;99.90;;;;;;5052508;28;20465;-85
2024/02/12 10:08:23;;;;;;;43.53;25.40;;;8.80;99.90;;;;;;5034619;28;20017;-85
2024/02/12 10:10:49;;;;;;;45.40;26.07;;;8.80;99.90;;;;;;5034737;28;20171;-85
2024/02/12 10:13:16;;;;;;;45.73;25.47;;;8.80;99.90;;;;;;5037446;28;20381;-86
2024/02/12 10:15:42;;;;;;;43.37;24.47;;;8.80;99.90;;;;;;5038328;28;20481;-85
2024/02/12 10:18:11;;;;;;;41.57;24.37;;;8.90;99.90;;;;;;5056566;28;20028;-86
2024/02/12 10:20:39;;;;;;;41.40;25.03;;;8.90;99.90;;;;;;5038591;28;20515;-85
2024/02/12 10:23:09;;;;;;;37.33;23.53;;;9.10;99.90;;;;;;5038348;28;20017;-85
2024/02/12 10:25:50;;;;;;;39.83;20.60;;;9.30;99.90;;;;;;5056486;28;20033;-85
2024/02/12 10:28:17;;;;;;;32.97;20.53;;;9.40;99.90;;;;;;5038176;28;20025;-84
2024/02/12 10:30:46;;;;;;;32.07;18.73;;;9.50;99.90;;;;;;5038088;28;20020;-86
2024/02/12 10:33:12;;;;;;;33.90;20.00;;;9.60;99.90;;;;;;5056618;28;20021;-86
2024/02/12 10:35:43;;;;;;;24.27;15.80;;;9.60;99.90;;;;;;5056005;28;20032;-85
2024/02/12 10:38:12;;;;;;;28.73;16.50;;;9.70;99.90;;;;;;5038261;28;20017;-86
2024/02/12 10:40:46;;;;;;;28.83;16.60;;;9.70;99.90;;;;;;5055893;28;20040;-85
2024/02/12 10:43:16;;;;;;;26.43;14.17;;;9.70;99.90;;;;;;5038255;28;20021;-84
2024/02/12 10:45:47;;;;;;;22.50;13.87;;;9.70;99.90;;;;;;5038009;28;20021;-85
2024/02/12 10:48:17;;;;;;;24.30;13.57;;;9.70;99.90;;;;;;5055695;28;20033;-85
2024/02/12 10:50:47;;;;;;;30.60;16.00;;;9.70;99.90;;;;;;5055866;28;20032;-84
2024/02/12 10:53:18;;;;;;;25.60;14.03;;;9.60;99.90;;;;;;5055657;28;20108;-86
2024/02/12 10:55:45;;;;;;;29.87;15.00;;;9.60;99.90;;;;;;5037779;28;20025;-85
2024/02/12 10:58:12;;;;;;;28.63;13.75;;;9.70;99.90;;;;;;5038395;28;20468;-86
2024/02/12 11:00:40;;;;;;;19.38;12.30;;;9.80;99.90;;;;;;5038283;28;20078;-85
2024/02/12 11:03:06;;;;;;;20.55;11.25;;;10.10;99.90;;;;;;5038480;28;20021;-86
2024/02/12 11:05:41;;;;;;;17.95;10.02;;;10.20;99.90;;;;;;5037941;28;20092;-84
2024/02/12 11:08:10;;;;;;;16.10;9.80;;;10.30;99.90;;;;;;5037972;28;20028;-86
2024/02/12 11:10:36;;;;;;;22.65;10.05;;;10.50;99.90;;;;;;5038280;28;20114;-85
2024/02/12 11:13:05;;;;;;;18.15;9.30;;;10.60;99.90;;;;;;5055612;28;20025;-85
2024/02/12 11:15:34;;;;;;;15.88;9.65;;;10.90;99.90;;;;;;5037189;28;20013;-86
2024/02/12 11:18:12;;;;;;;16.25;8.60;;;11.00;99.90;;;;;;5037477;28;20515;-85
2024/02/12 11:20:47;;;;;;;17.58;8.90;;;11.10;99.90;;;;;;5037669;28;20542;-86
2024/02/12 11:23:20;;;;;;;15.40;8.80;;;11.10;99.90;;;;;;5037502;28;20035;-86
2024/02/12 11:25:46;;;;;;;13.73;7.90;;;11.10;99.90;;;;;;5054576;28;20025;-85
2024/02/12 11:28:16;;;;;;;13.32;6.82;;;11.10;99.90;;;;;;5056029;28;20079;-87
2024/02/12 11:30:42;;;;;;;22.05;7.82;;;11.20;99.90;;;;;;5054965;28;20044;-87
2024/02/12 11:33:11;;;;;;;12.52;6.53;;;11.20;99.90;;;;;;5037047;28;20037;-87
2024/02/12 11:35:36;;;;;;;12.73;6.43;;;11.40;99.90;;;;;;5037820;28;20047;-86
2024/02/12 11:38:02;;;;;;;15.85;6.78;;;11.50;99.90;;;;;;5055628;28;20162;-87
2024/02/12 11:40:28;;;;;;;11.95;6.32;;;11.40;99.90;;;;;;5037066;28;20485;-86
2024/02/12 11:42:54;;;;;;;14.20;6.38;;;11.30;99.90;;;;;;5055719;28;20017;-86
2024/02/12 11:45:22;;;;;;;13.68;6.53;;;11.20;99.90;;;;;;5055222;28;20036;-86
2024/02/12 11:47:49;;;;;;;14.40;6.38;;;11.10;99.90;;;;;;5037545;28;20032;-87
2024/02/12 11:50:26;;;;;;;14.10;7.05;;;11.10;99.90;;;;;;5055854;28;20021;-87
2024/02/12 11:52:56;;;;;;;13.32;6.95;;;11.10;99.90;;;;;;5037565;28;20033;-87
2024/02/12 11:55:23;;;;;;;16.90;7.47;;;11.10;99.90;;;;;;5037249;28;20029;-87
2024/02/12 11:57:50;;;;;;;13.63;7.50;;;11.20;99.90;;;;;;5036558;28;20082;-87
2024/02/12 12:00:19;;;;;;;13.98;6.72;;;11.20;99.90;;;;;;5037414;28;20159;-87
2024/02/12 12:02:52;;;;;;;13.32;6.47;;;11.20;99.90;;;;;;5051925;28;20115;-86
2024/02/12 12:05:23;;;;;;;14.60;6.53;;;11.20;99.90;;;;;;5054618;28;20036;-86
2024/02/12 12:07:49;;;;;;;13.77;5.20;;;11.30;99.90;;;;;;5033454;28;20040;-87
2024/02/12 12:10:26;;;;;;;12.40;4.97;;;11.30;99.90;;;;;;5036364;28;20028;-86
2024/02/12 12:12:56;;;;;;;12.45;4.63;;;11.30;99.90;;;;;;5037067;28;20116;-87
2024/02/12 12:15:22;;;;;;;11.57;4.93;;;11.50;99.90;;;;;;5037039;28;20021;-87
2024/02/12 12:17:48;;;;;;;7.70;4.05;;;11.80;99.90;;;;;;5054848;28;20017;-87
2024/02/12 12:20:15;;;;;;;7.85;3.42;;;12.00;99.90;;;;;;5034980;28;20029;-87
2024/02/12 12:22:42;;;;;;;9.73;3.88;;;12.30;99.90;;;;;;5034756;28;20020;-87
2024/02/12 12:25:12;;;;;;;8.05;3.65;;;12.40;99.90;;;;;;5016970;28;20028;-87
2024/02/12 12:27:38;;;;;;;11.27;4.05;;;12.50;99.90;;;;;;5034502;28;20025;-87
2024/02/12 12:30:18;;;;;;;8.43;3.28;;;12.70;99.90;;;;;;5016888;28;20033;-87
2024/02/12 12:32:49;;;;;;;7.30;3.17;;;13.10;99.90;;;;;;5034233;28;20040;-87
2024/02/12 12:35:16;;;;;;;6.95;2.67;;;13.70;99.90;;;;;;5016660;28;20041;-87
2024/02/12 12:37:42;;;;;;;6.53;2.40;;;14.50;99.90;;;;;;5016105;28;20048;-89
2024/02/12 12:40:18;;;;;;;7.25;2.78;;;15.20;98.40;;;;;;5016794;28;20113;-87
2024/02/12 12:42:48;;;;;;;5.82;2.60;;;15.90;94.30;;;;;;5033954;28;20116;-87
2024/02/12 12:45:15;;;;;;;8.10;2.50;;;16.60;92.60;;;;;;5016427;28;20021;-87
2024/02/12 12:47:41;;;;;;;6.63;1.88;;;17.40;91.30;;;;;;5033868;28;20504;-87
2024/02/12 12:50:13;;;;;;;6.53;1.48;;;18.00;90.50;;;;;;5033696;28;20492;-87
2024/02/12 12:52:39;;;;;;;5.97;1.70;;;18.60;86.90;;;;;;5018991;28;20028;-86
2024/02/12 12:55:11;;;;;;;6.05;1.98;;;19.00;82.40;;;;;;5053145;28;20024;-87
2024/02/12 12:57:41;;;;;;;7.35;2.10;;;19.30;79.40;;;;;;5054575;28;20052;-86